Time;durP1;ratioP1;P1;durP2;ratioP2;P2;SDS_P1;SDS_P2;PMS_P1;PMS_P2;Temp;Humidity;BMP_temperature;BMP_pressure;BME280_temperature;BME280_humidity;BME280_pressure;Samples;Min_cycle;Max_cycle;Signal;HPM_P1;HPM_P2
2021/10/24 00:00:31;;;;;;;19.30;12.00;;;5.80;99.90;;;;;;2089143;28;20048;-73
2021/10/24 00:01:32;;;;;;;17.25;11.80;;;5.80;99.90;;;;;;2089076;28;20047;-73
2021/10/24 00:02:33;;;;;;;18.23;12.05;;;5.70;99.90;;;;;;2097124;28;20454;-73
2021/10/24 00:03:33;;;;;;;16.42;11.55;;;5.70;99.90;;;;;;2096461;28;20024;-70
2021/10/24 00:04:34;;;;;;;17.80;12.05;;;5.70;99.90;;;;;;2096539;28;20052;-73
2021/10/24 00:05:35;;;;;;;17.45;11.70;;;5.70;99.90;;;;;;2097265;28;20081;-73
2021/10/24 00:06:35;;;;;;;16.80;11.55;;;5.70;99.90;;;;;;2096872;28;20037;-75
2021/10/24 00:07:36;;;;;;;17.23;11.40;;;5.70;99.90;;;;;;2097137;28;20025;-73
2021/10/24 00:08:37;;;;;;;17.98;11.82;;;5.60;99.90;;;;;;2097457;28;20480;-75
2021/10/24 00:09:37;;;;;;;17.98;12.00;;;5.60;99.90;;;;;;2097564;28;20052;-74
2021/10/24 00:10:38;;;;;;;18.73;11.73;;;5.60;99.90;;;;;;2096832;28;20483;-73
2021/10/24 00:11:39;;;;;;;15.77;11.50;;;5.60;99.90;;;;;;2097322;28;20388;-74
2021/10/24 00:12:39;;;;;;;16.23;11.45;;;5.50;99.90;;;;;;2097448;28;20029;-73
2021/10/24 00:13:41;;;;;;;18.95;11.70;;;5.50;99.90;;;;;;2097824;28;20032;-74
2021/10/24 00:14:42;;;;;;;18.50;11.52;;;5.50;99.90;;;;;;2097744;28;20024;-74
2021/10/24 00:15:43;;;;;;;18.30;11.40;;;5.50;99.90;;;;;;2096844;28;20020;-76
2021/10/24 00:16:44;;;;;;;14.68;11.13;;;5.50;99.90;;;;;;2097776;28;20438;-75
2021/10/24 00:17:44;;;;;;;16.38;10.80;;;5.40;99.90;;;;;;2097709;28;20033;-76
2021/10/24 00:18:45;;;;;;;16.63;10.80;;;5.40;99.90;;;;;;2097062;28;20029;-76
2021/10/24 00:19:45;;;;;;;15.52;10.95;;;5.40;99.90;;;;;;2097239;28;20036;-76
2021/10/24 00:20:46;;;;;;;20.08;11.07;;;5.40;99.90;;;;;;2097367;28;20027;-76
2021/10/24 00:21:47;;;;;;;18.83;11.18;;;5.40;99.90;;;;;;2097982;28;20037;-76
2021/10/24 00:22:47;;;;;;;15.85;10.50;;;5.40;99.90;;;;;;2097933;28;20029;-75
2021/10/24 00:23:48;;;;;;;14.82;10.65;;;5.40;99.90;;;;;;2088471;28;20475;-71
2021/10/24 00:24:48;;;;;;;16.58;11.13;;;5.40;99.90;;;;;;2088533;28;20029;-71
2021/10/24 00:25:50;;;;;;;15.73;11.15;;;5.30;99.90;;;;;;2097238;28;20498;-71
2021/10/24 00:26:50;;;;;;;19.38;12.15;;;5.30;99.90;;;;;;2096412;28;20054;-71
2021/10/24 00:27:51;;;;;;;19.73;11.38;;;5.30;99.90;;;;;;2088226;28;20540;-68
2021/10/24 00:28:52;;;;;;;18.73;12.15;;;5.30;99.90;;;;;;2096717;28;20110;-71
2021/10/24 00:29:52;;;;;;;18.02;11.27;;;5.30;99.90;;;;;;2096599;28;20466;-71
2021/10/24 00:30:53;;;;;;;17.27;11.55;;;5.30;99.90;;;;;;2088440;28;20079;-71
2021/10/24 00:31:53;;;;;;;15.98;10.55;;;5.30;99.90;;;;;;2096593;28;20038;-71
2021/10/24 00:32:54;;;;;;;17.08;10.95;;;5.30;99.90;;;;;;2096944;28;20046;-72
2021/10/24 00:33:55;;;;;;;17.27;11.40;;;5.30;99.90;;;;;;2096350;28;20036;-71
2021/10/24 00:34:55;;;;;;;19.20;11.07;;;5.30;99.90;;;;;;2096636;28;20021;-72
2021/10/24 00:35:56;;;;;;;17.33;11.25;;;5.30;99.90;;;;;;2097196;28;20453;-71
2021/10/24 00:36:57;;;;;;;14.93;10.63;;;5.30;99.90;;;;;;2097074;28;20032;-71
2021/10/24 00:37:58;;;;;;;17.10;10.95;;;5.30;99.90;;;;;;2097150;28;20028;-71
2021/10/24 00:38:59;;;;;;;15.45;11.02;;;5.30;99.90;;;;;;2096187;28;20028;-71
2021/10/24 00:39:59;;;;;;;15.38;11.10;;;5.30;99.90;;;;;;2096424;28;20036;-71
2021/10/24 00:41:00;;;;;;;19.33;11.50;;;5.20;99.90;;;;;;2104755;28;20055;-71
2021/10/24 00:42:01;;;;;;;16.83;10.93;;;5.20;99.90;;;;;;2104668;28;20032;-72
2021/10/24 00:43:02;;;;;;;16.98;10.77;;;5.20;99.90;;;;;;2096077;28;20020;-72
2021/10/24 00:44:24;;;;;;;16.58;10.93;;;5.20;99.90;;;;;;2096470;28;20036;-72
2021/10/24 00:45:25;;;;;;;20.55;12.10;;;5.20;99.90;;;;;;2096464;28;20032;-71
2021/10/24 00:46:26;;;;;;;18.65;11.95;;;5.10;99.90;;;;;;2096720;28;20104;-71
2021/10/24 00:47:30;;;;;;;17.55;11.75;;;5.10;99.90;;;;;;2096560;28;20028;-71
2021/10/24 00:48:30;;;;;;;21.83;13.38;;;5.10;99.90;;;;;;2088574;28;20031;-72
2021/10/24 00:49:32;;;;;;;21.23;13.00;;;5.10;99.90;;;;;;2096462;28;20028;-71
2021/10/24 00:50:35;;;;;;;20.95;13.38;;;5.10;99.90;;;;;;2096441;28;20032;-71
2021/10/24 00:51:35;;;;;;;22.73;12.65;;;5.00;99.90;;;;;;2096342;28;20024;-71
2021/10/24 00:52:37;;;;;;;23.02;13.57;;;5.00;99.90;;;;;;2096629;28;20048;-72
2021/10/24 00:53:38;;;;;;;20.35;13.00;;;5.00;99.90;;;;;;2096968;28;20552;-71
2021/10/24 00:54:39;;;;;;;23.58;12.50;;;5.00;99.90;;;;;;2096376;28;20021;-71
2021/10/24 00:55:41;;;;;;;21.08;12.63;;;5.00;99.90;;;;;;2096351;28;20399;-71
2021/10/24 00:56:45;;;;;;;18.10;12.15;;;5.00;99.90;;;;;;2096416;28;20037;-72
2021/10/24 00:57:46;;;;;;;18.35;12.00;;;5.00;99.90;;;;;;2096428;28;20059;-71
2021/10/24 00:58:47;;;;;;;17.98;11.45;;;4.90;99.90;;;;;;2097042;28;20029;-71
2021/10/24 00:59:48;;;;;;;17.65;11.02;;;4.90;99.90;;;;;;2096336;28;20133;-71
2021/10/24 01:00:48;;;;;;;18.73;11.15;;;4.90;99.90;;;;;;2096312;28;20052;-72
2021/10/24 01:01:50;;;;;;;17.30;11.15;;;4.90;99.90;;;;;;2096152;28;20447;-71
2021/10/24 01:02:50;;;;;;;16.63;11.05;;;4.90;99.90;;;;;;2096076;28;20081;-71
2021/10/24 01:03:51;;;;;;;17.65;11.30;;;4.90;99.90;;;;;;2096167;28;20032;-71
2021/10/24 01:04:52;;;;;;;17.38;11.10;;;4.90;99.90;;;;;;2087968;28;20025;-71
2021/10/24 01:05:55;;;;;;;20.65;11.70;;;4.90;99.90;;;;;;2088192;28;20033;-71
2021/10/24 01:07:02;;;;;;;19.48;11.88;;;4.80;99.90;;;;;;2096476;28;20058;-72
2021/10/24 01:08:03;;;;;;;19.35;11.45;;;4.80;99.90;;;;;;2097018;28;20036;-71
2021/10/24 01:09:06;;;;;;;19.55;11.20;;;4.80;99.90;;;;;;2096215;28;20423;-71
2021/10/24 01:10:08;;;;;;;17.95;10.85;;;4.80;99.90;;;;;;2096320;28;20161;-70
2021/10/24 01:11:09;;;;;;;17.35;10.73;;;4.80;99.90;;;;;;2096914;28;20040;-70
2021/10/24 01:12:10;;;;;;;16.52;10.35;;;4.80;99.90;;;;;;2096090;28;20029;-70
2021/10/24 01:13:11;;;;;;;17.55;10.45;;;4.80;99.90;;;;;;2095934;28;20098;-71
2021/10/24 01:14:12;;;;;;;14.35;9.70;;;4.80;99.90;;;;;;2087565;28;20057;-70
2021/10/24 01:15:16;;;;;;;15.45;9.68;;;4.80;99.90;;;;;;2087701;28;20084;-70
2021/10/24 01:16:18;;;;;;;15.15;9.25;;;4.80;99.90;;;;;;2096026;28;20031;-70
2021/10/24 01:17:19;;;;;;;15.50;9.27;;;4.80;99.90;;;;;;2096801;28;20052;-70
2021/10/24 01:18:21;;;;;;;14.40;9.13;;;4.80;99.90;;;;;;2096891;28;20468;-70
2021/10/24 01:19:23;;;;;;;15.52;8.85;;;4.70;99.90;;;;;;2096214;28;20036;-70
2021/10/24 01:20:27;;;;;;;15.27;9.52;;;4.70;99.90;;;;;;2096406;28;20027;-70
2021/10/24 01:21:28;;;;;;;15.02;9.30;;;4.70;99.90;;;;;;2087915;28;20511;-70
2021/10/24 01:22:29;;;;;;;13.25;8.95;;;4.70;99.90;;;;;;2096360;28;20039;-70
2021/10/24 01:23:29;;;;;;;13.80;8.90;;;4.70;99.90;;;;;;2096411;28;20033;-70
2021/10/24 01:24:31;;;;;;;13.48;9.35;;;4.60;99.90;;;;;;2096586;28;20024;-70
2021/10/24 01:25:32;;;;;;;13.73;9.00;;;4.70;99.90;;;;;;2096244;28;20107;-70
2021/10/24 01:26:37;;;;;;;14.45;9.07;;;4.60;99.90;;;;;;2097485;28;20028;-71
2021/10/24 01:27:38;;;;;;;14.20;8.65;;;4.60;99.90;;;;;;2106264;28;20475;-71
2021/10/24 01:28:39;;;;;;;12.38;8.98;;;4.60;99.90;;;;;;2097316;28;20079;-71
2021/10/24 01:29:42;;;;;;;15.18;9.40;;;4.60;99.90;;;;;;2096980;28;20028;-71
2021/10/24 01:30:43;;;;;;;13.20;9.10;;;4.60;99.90;;;;;;2096744;28;20012;-70
2021/10/24 01:31:43;;;;;;;14.23;9.18;;;4.70;99.90;;;;;;2096573;28;20437;-71
2021/10/24 01:32:47;;;;;;;15.82;8.93;;;4.70;99.90;;;;;;2096437;28;20487;-70
2021/10/24 01:33:47;;;;;;;12.57;8.77;;;4.60;99.90;;;;;;2096476;28;20059;-70
2021/10/24 01:34:49;;;;;;;14.82;8.60;;;4.60;99.90;;;;;;2096598;28;20032;-70
2021/10/24 01:36:04;;;;;;;14.88;8.98;;;4.60;99.90;;;;;;2097227;28;20111;-70
2021/10/24 01:37:05;;;;;;;14.07;9.13;;;4.60;99.90;;;;;;2098130;28;20519;-71
2021/10/24 01:38:07;;;;;;;14.02;8.77;;;4.60;99.90;;;;;;2097675;28;20035;-70
2021/10/24 01:39:09;;;;;;;12.95;9.10;;;4.60;99.90;;;;;;2097856;28;20057;-70
2021/10/24 01:40:12;;;;;;;17.17;9.60;;;4.60;99.90;;;;;;2089434;28;20063;-70
2021/10/24 01:41:13;;;;;;;17.08;9.38;;;4.60;99.90;;;;;;2097638;28;20514;-70
2021/10/24 01:42:14;;;;;;;14.00;9.23;;;4.60;99.90;;;;;;2097584;28;20021;-70
2021/10/24 01:43:15;;;;;;;15.48;9.55;;;4.50;99.90;;;;;;2097523;28;20025;-70
2021/10/24 01:44:17;;;;;;;15.23;9.20;;;4.50;99.90;;;;;;2097784;28;20021;-70
2021/10/24 01:45:19;;;;;;;14.50;9.48;;;4.50;99.90;;;;;;2089784;28;20025;-70
2021/10/24 01:46:20;;;;;;;17.42;9.75;;;4.50;99.90;;;;;;2089740;28;20035;-70
2021/10/24 01:47:22;;;;;;;15.70;9.30;;;4.50;99.90;;;;;;2097720;28;20031;-70
2021/10/24 01:48:24;;;;;;;18.92;10.02;;;4.50;99.90;;;;;;2097653;28;20032;-70
2021/10/24 01:49:24;;;;;;;16.58;10.45;;;4.50;99.90;;;;;;2089383;28;20017;-69
2021/10/24 01:50:25;;;;;;;17.23;10.52;;;4.50;99.90;;;;;;2089405;28;20085;-69
2021/10/24 01:51:26;;;;;;;16.45;10.20;;;4.40;99.90;;;;;;2089256;28;20028;-69
2021/10/24 01:52:26;;;;;;;14.60;9.80;;;4.40;99.90;;;;;;2080904;28;20378;-69
2021/10/24 01:53:31;;;;;;;14.93;9.52;;;4.40;99.90;;;;;;2088860;28;20033;-69
2021/10/24 01:54:31;;;;;;;14.90;9.23;;;4.40;99.90;;;;;;2097555;28;20058;-69
2021/10/24 01:55:34;;;;;;;16.95;9.70;;;4.40;99.90;;;;;;2097575;28;20021;-70
2021/10/24 01:56:36;;;;;;;14.65;9.25;;;4.40;99.90;;;;;;2097588;28;20035;-70
2021/10/24 01:57:37;;;;;;;14.32;9.23;;;4.40;99.90;;;;;;2097670;28;20019;-70
2021/10/24 01:58:38;;;;;;;15.30;9.40;;;4.30;99.90;;;;;;2097537;28;20025;-70
2021/10/24 01:59:39;;;;;;;14.30;9.23;;;4.40;99.90;;;;;;2097481;28;20070;-70
2021/10/24 02:01:06;;;;;;;15.27;9.77;;;4.40;99.90;;;;;;2097195;28;20125;-70
2021/10/24 02:02:26;;;;;;;14.43;9.10;;;4.40;99.90;;;;;;2098081;28;20103;-70
2021/10/24 02:03:45;;;;;;;17.58;10.05;;;4.30;99.90;;;;;;2097445;28;20032;-70
2021/10/24 02:05:19;;;;;;;14.10;9.80;;;4.30;99.90;;;;;;2088925;28;20037;-70
2021/10/24 02:06:20;;;;;;;18.95;9.82;;;4.30;99.90;;;;;;2092540;28;20086;-70
2021/10/24 02:07:22;;;;;;;16.20;10.10;;;4.30;99.90;;;;;;2089302;28;20036;-70
2021/10/24 02:08:23;;;;;;;14.65;10.00;;;4.30;99.90;;;;;;2097358;28;20555;-70
2021/10/24 02:09:23;;;;;;;16.67;9.57;;;4.30;99.90;;;;;;2089268;28;20051;-70
2021/10/24 02:10:24;;;;;;;15.48;9.60;;;4.20;99.90;;;;;;2097524;28;20033;-70
2021/10/24 02:11:26;;;;;;;13.85;9.55;;;4.20;99.90;;;;;;2097326;28;20024;-70
2021/10/24 02:12:27;;;;;;;15.93;9.63;;;4.20;99.90;;;;;;2089185;28;20078;-70
2021/10/24 02:13:34;;;;;;;15.27;9.43;;;4.20;99.90;;;;;;2089784;28;20079;-70
2021/10/24 02:14:39;;;;;;;15.90;10.23;;;4.20;99.90;;;;;;2089860;28;20095;-72
2021/10/24 02:15:41;;;;;;;17.10;10.25;;;4.20;99.90;;;;;;2089086;28;20079;-70
2021/10/24 02:16:41;;;;;;;16.65;10.38;;;4.20;99.90;;;;;;2089295;28;20032;-70
2021/10/24 02:17:43;;;;;;;14.95;9.95;;;4.10;99.90;;;;;;2089208;28;20017;-70
2021/10/24 02:18:44;;;;;;;16.58;10.63;;;4.10;99.90;;;;;;2089271;28;20057;-71
2021/10/24 02:19:45;;;;;;;16.90;10.80;;;4.10;99.90;;;;;;2097448;28;20108;-70
2021/10/24 02:20:46;;;;;;;15.55;9.98;;;4.10;99.90;;;;;;2097261;28;20056;-70
2021/10/24 02:21:47;;;;;;;18.15;10.60;;;4.10;99.90;;;;;;2097411;28;20025;-70
2021/10/24 02:22:48;;;;;;;16.25;10.35;;;4.10;99.90;;;;;;2096927;28;20123;-70
2021/10/24 02:23:52;;;;;;;17.95;10.23;;;4.10;99.90;;;;;;2097401;28;20028;-71
2021/10/24 02:24:53;;;;;;;15.90;10.30;;;4.10;99.90;;;;;;2097338;28;20056;-70
2021/10/24 02:25:54;;;;;;;16.02;10.25;;;4.10;99.90;;;;;;2097517;28;20407;-70
2021/10/24 02:26:56;;;;;;;17.30;11.07;;;4.10;99.90;;;;;;2097414;28;20027;-70
2021/10/24 02:28:01;;;;;;;19.92;10.95;;;4.10;99.90;;;;;;2089426;28;20061;-70
2021/10/24 02:29:03;;;;;;;18.70;11.10;;;4.00;99.90;;;;;;2097757;28;20040;-70
2021/10/24 02:30:10;;;;;;;17.30;10.68;;;4.00;99.90;;;;;;2097486;28;20031;-70
2021/10/24 02:31:10;;;;;;;17.25;10.10;;;4.00;99.90;;;;;;2097408;28;20522;-70
2021/10/24 02:32:31;;;;;;;15.95;10.75;;;4.00;99.90;;;;;;2097170;28;20464;-70
2021/10/24 02:33:40;;;;;;;16.90;11.00;;;4.00;99.90;;;;;;2097314;28;20029;-69
2021/10/24 02:35:08;;;;;;;14.57;10.38;;;4.00;99.90;;;;;;2096946;28;20032;-70
2021/10/24 02:36:17;;;;;;;15.85;10.00;;;4.00;99.90;;;;;;2097461;28;20047;-69
2021/10/24 02:37:25;;;;;;;14.50;9.77;;;3.90;99.90;;;;;;2098395;28;20024;-70
2021/10/24 02:38:26;;;;;;;18.35;10.43;;;3.90;99.90;;;;;;2097190;28;20132;-70
2021/10/24 02:39:27;;;;;;;14.50;9.82;;;3.90;99.90;;;;;;2088975;28;20470;-70
2021/10/24 02:40:28;;;;;;;14.65;9.85;;;3.90;99.90;;;;;;2097353;28;20039;-70
2021/10/24 02:41:30;;;;;;;14.98;10.18;;;3.90;99.90;;;;;;2097184;28;20024;-70
2021/10/24 02:42:34;;;;;;;15.88;10.40;;;3.90;99.90;;;;;;2097431;28;20025;-71
2021/10/24 02:43:34;;;;;;;14.55;10.05;;;3.90;99.90;;;;;;2105411;28;20123;-70
2021/10/24 02:44:35;;;;;;;17.15;10.45;;;3.90;99.90;;;;;;2088999;28;20370;-70
2021/10/24 02:45:36;;;;;;;14.65;9.77;;;3.90;99.90;;;;;;2097255;28;20524;-70
2021/10/24 02:46:37;;;;;;;15.30;10.45;;;3.90;99.90;;;;;;2088455;28;20505;-71
2021/10/24 02:47:44;;;;;;;14.48;10.02;;;3.90;99.90;;;;;;2089836;28;20111;-70
2021/10/24 02:48:47;;;;;;;15.98;9.80;;;3.90;99.90;;;;;;2097295;28;20028;-70
2021/10/24 02:49:48;;;;;;;16.20;9.60;;;3.90;99.90;;;;;;2097259;28;20101;-70
2021/10/24 02:50:49;;;;;;;15.38;9.68;;;3.90;99.90;;;;;;2097215;28;20760;-70
2021/10/24 02:51:56;;;;;;;14.00;9.77;;;3.90;99.90;;;;;;2097082;28;20450;-70
2021/10/24 02:52:57;;;;;;;12.85;9.77;;;3.90;99.90;;;;;;2097420;28;20029;-70
2021/10/24 02:53:58;;;;;;;13.07;9.48;;;3.80;99.90;;;;;;2096913;28;20127;-70
2021/10/24 02:54:59;;;;;;;15.45;10.00;;;3.80;99.90;;;;;;2097159;28;20119;-71
2021/10/24 02:56:02;;;;;;;14.80;9.63;;;3.80;99.90;;;;;;2097250;28;20029;-70
2021/10/24 02:57:05;;;;;;;14.15;9.77;;;3.80;99.90;;;;;;2089074;28;20072;-70
2021/10/24 02:58:05;;;;;;;14.18;9.35;;;3.80;99.90;;;;;;2080657;28;20056;-71
2021/10/24 02:59:06;;;;;;;13.68;9.55;;;3.80;99.90;;;;;;2088796;28;20025;-72
2021/10/24 03:00:09;;;;;;;16.13;10.20;;;3.80;99.90;;;;;;2096816;28;20480;-71
2021/10/24 03:01:09;;;;;;;16.63;10.32;;;3.80;99.90;;;;;;2097065;28;20081;-71
2021/10/24 03:02:10;;;;;;;15.63;9.98;;;3.80;99.90;;;;;;2097269;28;20146;-71
2021/10/24 03:03:11;;;;;;;14.27;10.02;;;3.80;99.90;;;;;;2096939;28;20025;-71
2021/10/24 03:04:15;;;;;;;13.88;9.82;;;3.80;99.90;;;;;;2097578;28;20036;-69
2021/10/24 03:05:20;;;;;;;13.73;10.10;;;3.80;99.90;;;;;;2097220;28;20020;-71
2021/10/24 03:06:24;;;;;;;16.10;9.95;;;3.80;99.90;;;;;;2097598;28;20066;-71
2021/10/24 03:07:29;;;;;;;14.85;9.38;;;3.70;99.90;;;;;;2088554;28;20047;-70
2021/10/24 03:08:31;;;;;;;14.45;10.35;;;3.70;99.90;;;;;;2081490;28;20484;-70
2021/10/24 03:09:32;;;;;;;18.42;10.70;;;3.70;99.90;;;;;;2088864;28;20088;-70
2021/10/24 03:10:33;;;;;;;13.52;9.80;;;3.70;99.90;;;;;;2088681;28;20080;-70
2021/10/24 03:11:37;;;;;;;14.15;10.00;;;3.70;99.90;;;;;;2088947;28;20111;-70
2021/10/24 03:12:37;;;;;;;14.65;10.00;;;3.70;99.90;;;;;;2088519;28;20029;-70
2021/10/24 03:13:38;;;;;;;15.27;10.52;;;3.60;99.90;;;;;;2096941;28;20488;-70
2021/10/24 03:14:39;;;;;;;14.13;9.90;;;3.60;99.90;;;;;;2105398;28;20127;-70
2021/10/24 03:15:41;;;;;;;16.67;10.10;;;3.60;99.90;;;;;;2096940;28;20523;-70
2021/10/24 03:16:43;;;;;;;13.75;9.95;;;3.60;99.90;;;;;;2097088;28;20060;-70
2021/10/24 03:17:45;;;;;;;14.50;10.35;;;3.60;99.90;;;;;;2097213;28;20078;-70
2021/10/24 03:18:45;;;;;;;13.85;9.82;;;3.60;99.90;;;;;;2097421;28;20020;-71
2021/10/24 03:19:46;;;;;;;14.43;10.00;;;3.60;99.90;;;;;;2089050;28;20403;-70
2021/10/24 03:20:47;;;;;;;14.77;10.50;;;3.50;99.90;;;;;;2097033;28;20016;-71
2021/10/24 03:21:48;;;;;;;13.23;10.23;;;3.50;99.90;;;;;;2089117;28;20040;-70
2021/10/24 03:22:49;;;;;;;14.80;10.32;;;3.50;99.90;;;;;;2088612;28;20029;-71
2021/10/24 03:23:50;;;;;;;15.43;10.35;;;3.50;99.90;;;;;;2096920;28;20029;-71
2021/10/24 03:24:50;;;;;;;17.88;10.20;;;3.50;99.90;;;;;;2097648;28;20021;-69
2021/10/24 03:25:51;;;;;;;14.82;10.45;;;3.50;99.90;;;;;;2097475;28;20139;-70
2021/10/24 03:26:52;;;;;;;12.63;9.57;;;3.50;99.90;;;;;;2096788;28;20525;-69
2021/10/24 03:27:52;;;;;;;15.93;9.88;;;3.50;99.90;;;;;;2096782;28;20680;-70
2021/10/24 03:28:53;;;;;;;16.63;9.95;;;3.50;99.90;;;;;;2096888;28;20048;-70
2021/10/24 03:29:57;;;;;;;15.88;9.82;;;3.50;99.90;;;;;;2096970;28;20112;-70
2021/10/24 03:31:00;;;;;;;14.68;9.20;;;3.50;99.90;;;;;;2096881;28;20028;-70
2021/10/24 03:32:03;;;;;;;15.02;9.57;;;3.40;99.90;;;;;;2097182;28;20803;-70
2021/10/24 03:33:05;;;;;;;15.40;9.95;;;3.40;99.90;;;;;;2096875;28;20857;-69
2021/10/24 03:34:07;;;;;;;15.98;10.13;;;3.40;99.90;;;;;;2088659;28;20029;-70
2021/10/24 03:35:08;;;;;;;13.48;9.38;;;3.40;99.90;;;;;;2097087;28;20033;-70
2021/10/24 03:36:09;;;;;;;14.18;10.07;;;3.40;99.90;;;;;;2097012;28;20112;-70
2021/10/24 03:37:10;;;;;;;13.23;9.35;;;3.40;99.90;;;;;;2096981;28;20499;-69
2021/10/24 03:38:11;;;;;;;15.40;10.07;;;3.40;99.90;;;;;;2088793;28;20033;-69
2021/10/24 03:39:11;;;;;;;16.90;10.30;;;3.40;99.90;;;;;;2088677;28;20092;-70
2021/10/24 03:40:13;;;;;;;14.75;9.75;;;3.40;99.90;;;;;;2096978;28;20031;-70
2021/10/24 03:41:14;;;;;;;15.40;10.25;;;3.30;99.90;;;;;;2096635;28;20020;-69
2021/10/24 03:42:14;;;;;;;15.45;10.07;;;3.30;99.90;;;;;;2097089;28;20040;-71
2021/10/24 03:43:15;;;;;;;12.48;9.80;;;3.30;99.90;;;;;;2096742;28;20017;-70
2021/10/24 03:44:16;;;;;;;15.68;9.82;;;3.30;99.90;;;;;;2097009;28;20031;-69
2021/10/24 03:45:17;;;;;;;13.52;9.70;;;3.30;99.90;;;;;;2096840;28;20119;-71
2021/10/24 03:46:17;;;;;;;15.48;9.70;;;3.30;99.90;;;;;;2096722;28;20036;-69
2021/10/24 03:47:18;;;;;;;15.77;9.88;;;3.30;99.90;;;;;;2096797;28;20059;-69
2021/10/24 03:48:18;;;;;;;14.73;9.65;;;3.30;99.90;;;;;;2096783;28;20135;-69
2021/10/24 03:49:23;;;;;;;14.80;9.88;;;3.20;99.90;;;;;;2096592;28;20502;-71
2021/10/24 03:50:24;;;;;;;16.30;9.68;;;3.20;99.90;;;;;;2096790;28;20032;-71
2021/10/24 03:51:25;;;;;;;15.23;9.77;;;3.20;99.90;;;;;;2096620;28;20030;-70
2021/10/24 03:52:25;;;;;;;13.77;9.18;;;3.20;99.90;;;;;;2096758;28;20020;-70
2021/10/24 03:53:27;;;;;;;14.93;9.23;;;3.20;99.90;;;;;;2096280;28;20455;-69
2021/10/24 03:54:29;;;;;;;13.35;9.23;;;3.20;99.90;;;;;;2096995;28;20057;-70
2021/10/24 03:55:33;;;;;;;14.85;9.18;;;3.20;99.90;;;;;;2096196;28;20028;-71
2021/10/24 03:56:37;;;;;;;15.35;9.77;;;3.20;99.90;;;;;;2097182;28;20017;-71
2021/10/24 03:57:39;;;;;;;16.55;10.43;;;3.20;99.90;;;;;;2096655;28;20063;-68
2021/10/24 03:58:41;;;;;;;15.85;10.40;;;3.20;99.90;;;;;;2096222;28;20024;-70
2021/10/24 03:59:42;;;;;;;15.80;9.95;;;3.20;99.90;;;;;;2105055;28;20028;-70
2021/10/24 04:00:44;;;;;;;16.27;10.13;;;3.20;99.90;;;;;;2097446;28;20017;-70
2021/10/24 04:01:47;;;;;;;15.25;10.07;;;3.10;99.90;;;;;;2096692;28;20082;-70
2021/10/24 04:02:52;;;;;;;14.93;10.07;;;3.10;99.90;;;;;;2088259;28;20083;-70
2021/10/24 04:03:52;;;;;;;16.00;9.73;;;3.20;99.90;;;;;;2088865;28;20028;-70
2021/10/24 04:04:53;;;;;;;14.20;10.02;;;3.20;99.90;;;;;;2088455;28;20029;-70
2021/10/24 04:05:54;;;;;;;14.60;10.02;;;3.20;99.90;;;;;;2088231;28;20455;-71
2021/10/24 04:06:54;;;;;;;13.95;10.27;;;3.20;99.90;;;;;;2096857;28;20106;-70
2021/10/24 04:07:56;;;;;;;16.02;10.30;;;3.20;99.90;;;;;;2089292;28;20467;-70
2021/10/24 04:08:56;;;;;;;15.32;10.13;;;3.20;99.90;;;;;;2089305;28;20029;-71
2021/10/24 04:09:57;;;;;;;15.88;10.05;;;3.20;99.90;;;;;;2097163;28;20063;-70
2021/10/24 04:10:58;;;;;;;16.02;10.43;;;3.20;99.90;;;;;;2096761;28;20067;-70
2021/10/24 04:11:59;;;;;;;15.95;9.90;;;3.20;99.90;;;;;;2088560;28;20025;-71
2021/10/24 04:12:59;;;;;;;15.48;10.30;;;3.20;99.90;;;;;;2096928;28;20037;-70
2021/10/24 04:14:01;;;;;;;14.35;10.05;;;3.10;99.90;;;;;;2096556;28;20036;-70
2021/10/24 04:15:02;;;;;;;15.32;10.88;;;3.10;99.90;;;;;;2088244;28;20425;-71
2021/10/24 04:16:03;;;;;;;13.80;9.45;;;3.10;99.90;;;;;;2088570;28;20474;-70
2021/10/24 04:17:22;;;;;;;17.60;10.48;;;3.10;99.90;;;;;;2096812;28;20032;-71
2021/10/24 04:18:23;;;;;;;15.20;10.07;;;3.10;99.90;;;;;;2088921;28;20036;-71
2021/10/24 04:19:25;;;;;;;14.75;10.07;;;3.10;99.90;;;;;;2088582;28;20136;-70
2021/10/24 04:20:25;;;;;;;16.02;10.43;;;3.10;99.90;;;;;;2088556;28;20055;-71
2021/10/24 04:21:27;;;;;;;14.18;9.82;;;3.10;99.90;;;;;;2088182;28;20021;-70
2021/10/24 04:22:29;;;;;;;14.25;10.27;;;3.00;99.90;;;;;;2088351;28;20120;-70
2021/10/24 04:23:29;;;;;;;17.60;10.68;;;3.00;99.90;;;;;;2088189;28;20048;-71
2021/10/24 04:24:32;;;;;;;15.98;10.50;;;3.00;99.90;;;;;;2096633;28;20040;-71
2021/10/24 04:25:32;;;;;;;15.88;10.68;;;3.00;99.90;;;;;;2104673;28;20028;-71
2021/10/24 04:26:33;;;;;;;16.58;10.27;;;3.00;99.90;;;;;;2105152;28;20039;-71
2021/10/24 04:27:34;;;;;;;15.23;10.45;;;3.00;99.90;;;;;;2096675;28;20055;-70
2021/10/24 04:28:34;;;;;;;15.75;10.45;;;3.00;99.90;;;;;;2090056;28;20017;-70
2021/10/24 04:29:35;;;;;;;17.90;10.23;;;3.00;99.90;;;;;;2089826;28;20139;-70
2021/10/24 04:30:36;;;;;;;15.25;10.90;;;3.00;99.90;;;;;;2098549;28;20027;-71
2021/10/24 04:31:37;;;;;;;14.10;10.20;;;3.00;99.90;;;;;;2106149;28;20463;-70
2021/10/24 04:32:39;;;;;;;15.70;10.57;;;3.00;99.90;;;;;;2097207;28;20099;-70
2021/10/24 04:33:41;;;;;;;16.67;12.00;;;3.00;99.90;;;;;;2096654;28;20039;-70
2021/10/24 04:34:42;;;;;;;33.05;20.60;;;3.00;99.90;;;;;;2104791;28;20012;-70
2021/10/24 04:35:43;;;;;;;47.30;29.75;;;3.00;99.90;;;;;;2096354;28;20091;-70
2021/10/24 04:36:44;;;;;;;49.35;31.10;;;2.90;99.90;;;;;;2096461;28;20043;-70
2021/10/24 04:37:45;;;;;;;61.33;35.28;;;3.00;99.90;;;;;;2096414;28;20826;-70
2021/10/24 04:38:46;;;;;;;61.55;37.08;;;2.90;99.90;;;;;;2088116;28;20024;-70
2021/10/24 04:39:47;;;;;;;62.40;35.83;;;2.90;99.90;;;;;;2096368;28;20060;-70
2021/10/24 04:40:47;;;;;;;60.13;35.00;;;2.90;99.90;;;;;;2096358;28;20044;-71
2021/10/24 04:41:48;;;;;;;65.88;36.92;;;2.90;99.90;;;;;;2096251;28;20673;-71
2021/10/24 04:42:49;;;;;;;59.25;33.17;;;2.90;99.90;;;;;;2096598;28;20036;-71
2021/10/24 04:43:49;;;;;;;51.22;29.67;;;2.90;99.90;;;;;;2096388;28;20024;-70
2021/10/24 04:44:53;;;;;;;44.38;26.23;;;2.90;99.90;;;;;;2088523;28;20028;-70
2021/10/24 04:45:55;;;;;;;34.50;21.30;;;2.90;99.90;;;;;;2088097;28;20028;-70
2021/10/24 04:46:57;;;;;;;33.97;20.08;;;2.90;99.90;;;;;;2088396;28;20036;-70
2021/10/24 04:47:59;;;;;;;28.23;17.75;;;2.90;99.90;;;;;;2096435;28;20064;-70
2021/10/24 04:49:00;;;;;;;28.67;17.40;;;2.90;99.90;;;;;;2096280;28;20115;-71
2021/10/24 04:50:01;;;;;;;27.58;17.45;;;2.90;99.90;;;;;;2096370;28;20477;-71
2021/10/24 04:51:02;;;;;;;25.58;16.67;;;2.90;99.90;;;;;;2096263;28;20543;-71
2021/10/24 04:52:04;;;;;;;23.48;16.02;;;2.90;99.90;;;;;;2087811;28;20064;-70
2021/10/24 04:53:06;;;;;;;24.02;16.02;;;2.90;99.90;;;;;;2087680;28;20033;-70
2021/10/24 04:54:07;;;;;;;21.52;15.00;;;2.90;99.90;;;;;;2088457;28;20032;-70
2021/10/24 04:55:08;;;;;;;21.15;14.63;;;2.90;99.90;;;;;;2096545;28;20028;-71
2021/10/24 04:56:09;;;;;;;22.77;15.27;;;2.90;99.90;;;;;;2096507;28;20033;-70
2021/10/24 04:57:11;;;;;;;22.95;15.52;;;2.90;99.90;;;;;;2096355;28;20028;-70
2021/10/24 04:58:12;;;;;;;20.70;15.32;;;2.90;99.90;;;;;;2088066;28;20134;-71
2021/10/24 04:59:12;;;;;;;23.98;16.52;;;2.90;99.90;;;;;;2096366;28;20032;-71
2021/10/24 05:00:15;;;;;;;52.38;38.28;;;2.90;99.90;;;;;;2088337;28;20025;-71
2021/10/24 05:01:16;;;;;;;71.43;53.67;;;2.90;99.90;;;;;;2087810;28;20021;-70
2021/10/24 05:02:17;;;;;;;69.88;52.72;;;2.90;99.90;;;;;;2088129;28;20498;-71
2021/10/24 05:03:18;;;;;;;68.43;51.75;;;2.80;99.90;;;;;;2087653;28;20037;-70
2021/10/24 05:04:19;;;;;;;57.88;44.90;;;2.90;99.90;;;;;;2087943;28;20025;-70
2021/10/24 05:05:20;;;;;;;53.03;40.13;;;2.90;99.90;;;;;;2096296;28;20064;-70
2021/10/24 05:06:21;;;;;;;48.72;37.42;;;2.90;99.90;;;;;;2097007;28;20037;-71
2021/10/24 05:07:22;;;;;;;40.67;31.30;;;2.90;99.90;;;;;;2096211;28;20051;-70
2021/10/24 05:08:24;;;;;;;32.25;23.05;;;2.80;99.90;;;;;;2088147;28;20502;-71
2021/10/24 05:09:25;;;;;;;27.30;20.58;;;2.80;99.90;;;;;;2096275;28;20020;-71
2021/10/24 05:10:26;;;;;;;24.27;17.90;;;2.80;99.90;;;;;;2089512;28;20070;-71
2021/10/24 05:11:26;;;;;;;20.45;15.30;;;2.80;99.90;;;;;;2097813;28;20071;-71
2021/10/24 05:12:27;;;;;;;20.73;14.35;;;2.80;99.90;;;;;;2098650;28;20060;-71
2021/10/24 05:13:31;;;;;;;21.00;13.80;;;2.80;99.90;;;;;;2097825;28;20024;-71
2021/10/24 05:14:32;;;;;;;19.13;12.63;;;2.70;99.90;;;;;;2097983;28;20028;-71
2021/10/24 05:15:33;;;;;;;18.88;12.80;;;2.70;99.90;;;;;;2089613;28;20492;-71
2021/10/24 05:16:37;;;;;;;18.65;12.95;;;2.70;99.90;;;;;;2082301;28;20021;-71
2021/10/24 05:17:40;;;;;;;19.58;12.93;;;2.70;99.90;;;;;;2098076;28;20450;-71
2021/10/24 05:18:44;;;;;;;17.95;12.50;;;2.70;99.90;;;;;;2097492;28;20013;-71
2021/10/24 05:19:50;;;;;;;18.33;12.25;;;2.70;99.90;;;;;;2090111;28;20017;-71
2021/10/24 05:20:54;;;;;;;18.83;12.75;;;2.70;99.90;;;;;;2090301;28;20108;-71